createdAt,value
2022-12-18T00:01:27.169Z,3.72
2022-12-18T00:04:19.897Z,3.75
2022-12-18T00:07:06.986Z,3.50
2022-12-18T00:09:55.159Z,4.13
2022-12-18T00:12:42.125Z,3.70
2022-12-18T00:15:28.868Z,3.25
2022-12-18T00:18:18.918Z,3.60
2022-12-18T00:21:08.675Z,3.72
2022-12-18T00:23:55.617Z,4.35
2022-12-18T00:26:44.172Z,3.65
2022-12-18T00:29:31.335Z,3.70
2022-12-18T00:32:18.279Z,2.78
2022-12-18T00:35:05.534Z,4.63
2022-12-18T00:37:53.199Z,4.80
2022-12-18T00:40:40.223Z,3.92
2022-12-18T00:43:27.616Z,4.97
2022-12-18T00:46:14.567Z,5.03
2022-12-18T00:49:01.934Z,3.58
2022-12-18T00:51:48.948Z,4.07
2022-12-18T00:54:36.042Z,4.78
2022-12-18T00:57:22.976Z,4.75
2022-12-18T01:00:12.668Z,4.30
2022-12-18T01:02:59.886Z,4.88
2022-12-18T01:05:47.016Z,3.50
2022-12-18T01:08:33.898Z,4.18
2022-12-18T01:11:21.579Z,4.13
2022-12-18T01:14:08.739Z,5.15
2022-12-18T01:16:59.800Z,4.68
2022-12-18T01:19:48.976Z,3.72
2022-12-18T01:22:37.256Z,3.60
2022-12-18T01:25:26.943Z,4.55
2022-12-18T01:28:16.277Z,4.75
2022-12-18T01:31:17.008Z,3.40
2022-12-18T01:34:08.312Z,4.18
2022-12-18T01:36:57.608Z,4.25
2022-12-18T01:39:46.798Z,3.60
2022-12-18T01:42:35.090Z,4.25
2022-12-18T01:45:28.358Z,3.30
2022-12-18T01:48:16.500Z,5.43
2022-12-18T01:51:08.031Z,4.93
2022-12-18T01:53:57.439Z,4.55
2022-12-18T01:56:44.928Z,4.28
2022-12-18T01:59:34.892Z,4.22
2022-12-18T02:02:24.706Z,4.38
2022-12-18T02:05:14.650Z,4.30
2022-12-18T02:08:09.423Z,4.05
2022-12-18T02:11:02.789Z,3.88
2022-12-18T02:13:55.299Z,4.78
2022-12-18T02:16:47.463Z,4.78
2022-12-18T02:19:42.955Z,3.63
2022-12-18T02:22:37.220Z,3.83
2022-12-18T02:25:32.559Z,4.43
2022-12-18T02:28:21.581Z,4.40
2022-12-18T02:31:10.095Z,4.20
2022-12-18T02:33:58.600Z,4.38
2022-12-18T02:36:46.793Z,5.20
2022-12-18T02:39:36.255Z,2.92
2022-12-18T02:42:23.817Z,3.97
2022-12-18T02:45:12.602Z,3.45
2022-12-18T02:47:59.577Z,4.75
2022-12-18T02:50:51.466Z,2.95
2022-12-18T02:53:41.732Z,4.18
2022-12-18T02:56:30.549Z,3.90
2022-12-18T02:59:19.906Z,3.15
2022-12-18T03:02:14.967Z,3.15
2022-12-18T03:05:04.022Z,3.75
2022-12-18T03:07:52.574Z,3.80
2022-12-18T03:10:43.121Z,3.75
2022-12-18T03:13:34.744Z,4.28
2022-12-18T03:16:24.868Z,4.78
2022-12-18T03:19:16.027Z,4.05
2022-12-18T03:22:04.616Z,3.58
2022-12-18T03:24:51.771Z,4.10
2022-12-18T03:27:40.158Z,3.65
2022-12-18T03:30:28.735Z,3.53
2022-12-18T03:33:20.653Z,4.10
2022-12-18T03:36:09.288Z,3.83
2022-12-18T03:38:56.190Z,3.80
2022-12-18T03:41:45.358Z,3.42
2022-12-18T03:44:37.594Z,3.90
2022-12-18T03:47:27.419Z,3.65
2022-12-18T03:50:16.886Z,3.45
2022-12-18T03:53:08.707Z,3.55
2022-12-18T03:55:55.974Z,3.30
2022-12-18T03:58:44.177Z,4.45
2022-12-18T04:01:33.495Z,5.10
2022-12-18T04:04:21.092Z,3.95
2022-12-18T04:07:08.710Z,3.15
2022-12-18T04:09:58.419Z,3.00
2022-12-18T04:12:45.551Z,3.10
2022-12-18T04:15:33.914Z,4.05
2022-12-18T04:18:21.220Z,2.90
2022-12-18T04:21:08.151Z,2.40
2022-12-18T04:23:55.127Z,2.97
2022-12-18T04:26:43.495Z,2.90
2022-12-18T04:29:30.793Z,4.05
2022-12-18T04:32:17.707Z,3.88
2022-12-18T04:35:07.694Z,3.35
2022-12-18T04:37:54.724Z,2.70
2022-12-18T04:40:41.885Z,4.05
2022-12-18T04:43:31.016Z,3.20
2022-12-18T04:46:17.932Z,3.03
2022-12-18T04:49:04.733Z,3.10
2022-12-18T04:51:51.576Z,4.32
2022-12-18T04:54:38.436Z,3.55
2022-12-18T04:57:25.351Z,3.30
2022-12-18T05:00:14.264Z,3.35
2022-12-18T05:03:02.774Z,3.67
2022-12-18T05:05:51.392Z,3.75
2022-12-18T05:08:38.958Z,3.70
2022-12-18T05:11:26.244Z,3.17
2022-12-18T05:14:12.976Z,3.35
2022-12-18T05:17:01.509Z,3.90
2022-12-18T05:19:48.775Z,4.10
2022-12-18T05:22:35.704Z,3.70
2022-12-18T05:25:22.904Z,4.28
2022-12-18T05:28:09.929Z,4.07
2022-12-18T05:30:58.066Z,4.18
2022-12-18T05:33:46.327Z,3.58
2022-12-18T05:36:33.543Z,3.85
2022-12-18T05:39:20.864Z,3.83
2022-12-18T05:42:08.087Z,3.55
2022-12-18T05:44:54.936Z,3.38
2022-12-18T05:47:42.077Z,3.92
2022-12-18T05:50:30.701Z,4.03
2022-12-18T05:53:18.200Z,3.38
2022-12-18T05:56:06.370Z,3.22
2022-12-18T05:58:53.887Z,3.80
2022-12-18T06:01:40.996Z,4.05
2022-12-18T06:04:28.965Z,3.72
2022-12-18T06:07:17.506Z,3.53
2022-12-18T06:10:05.386Z,2.95
2022-12-18T06:12:52.445Z,3.83
2022-12-18T06:15:39.268Z,3.83
2022-12-18T06:18:26.132Z,5.20
2022-12-18T06:21:13.079Z,4.47
2022-12-18T06:24:01.753Z,4.47
2022-12-18T06:26:48.849Z,3.50
2022-12-18T06:29:35.842Z,4.03
2022-12-18T06:32:22.858Z,4.13
2022-12-18T06:35:10.004Z,4.50
2022-12-18T06:37:57.362Z,4.03
2022-12-18T06:40:45.632Z,5.22
2022-12-18T06:43:33.157Z,4.38
2022-12-18T06:46:20.352Z,4.85
2022-12-18T06:49:07.915Z,3.13
2022-12-18T06:51:54.832Z,5.68
2022-12-18T06:54:41.700Z,3.83
2022-12-18T06:57:30.054Z,5.47
2022-12-18T07:00:17.566Z,5.78
2022-12-18T07:03:04.711Z,4.78
2022-12-18T07:05:51.841Z,4.13
2022-12-18T07:08:38.927Z,4.43
2022-12-18T07:11:26.100Z,3.60
2022-12-18T07:14:14.327Z,5.10
2022-12-18T07:17:01.657Z,4.88
2022-12-18T07:19:48.990Z,4.78
2022-12-18T07:22:35.752Z,4.93
2022-12-18T07:25:22.712Z,4.80
2022-12-18T07:28:14.231Z,4.68
2022-12-18T07:31:07.061Z,3.85
2022-12-18T07:33:54.091Z,3.70
2022-12-18T07:36:41.320Z,4.25
2022-12-18T07:39:28.325Z,4.15
2022-12-18T07:42:33.521Z,5.80
2022-12-18T07:45:20.482Z,4.45
2022-12-18T07:48:08.839Z,5.18
2022-12-18T07:50:56.039Z,4.47
2022-12-18T07:53:43.478Z,4.55
2022-12-18T07:56:31.572Z,4.55
2022-12-18T07:59:18.734Z,5.10
2022-12-18T08:02:06.102Z,4.40
2022-12-18T08:04:55.243Z,5.25
2022-12-18T08:07:42.340Z,3.63
2022-12-18T08:10:31.679Z,4.28
2022-12-18T08:13:18.575Z,3.60
2022-12-18T08:16:06.925Z,4.30
2022-12-18T08:18:54.331Z,3.80
2022-12-18T08:21:45.782Z,4.30
2022-12-18T08:24:32.874Z,4.65
2022-12-18T08:27:35.218Z,4.75
2022-12-18T08:30:22.339Z,3.40
2022-12-18T08:33:09.673Z,4.88
2022-12-18T08:35:56.701Z,4.53
2022-12-18T08:38:45.008Z,5.28
2022-12-18T08:41:32.254Z,4.32
2022-12-18T08:44:37.115Z,4.18
2022-12-18T08:50:12.229Z,3.72
2022-12-18T08:52:59.400Z,2.92
2022-12-18T08:55:50.337Z,3.95
2022-12-18T08:58:37.487Z,3.35
2022-12-18T09:01:24.827Z,3.65
2022-12-18T09:04:12.197Z,5.60
2022-12-18T09:06:59.422Z,3.40
2022-12-18T09:09:46.363Z,4.15
2022-12-18T09:12:34.751Z,4.45
2022-12-18T09:15:21.665Z,5.18
2022-12-18T09:18:09.843Z,4.25
2022-12-18T09:20:57.013Z,2.75
2022-12-18T09:23:45.028Z,3.53
2022-12-18T09:26:32.602Z,2.80
2022-12-18T09:29:21.179Z,3.30
2022-12-18T09:32:08.449Z,2.88
2022-12-18T09:34:55.505Z,3.92
2022-12-18T09:37:43.460Z,4.13
2022-12-18T09:40:36.326Z,3.78
2022-12-18T09:43:28.676Z,3.80
2022-12-18T09:46:20.064Z,2.22
2022-12-18T09:49:09.873Z,3.08
2022-12-18T09:51:59.097Z,3.03
2022-12-18T09:54:47.680Z,3.40
2022-12-18T09:57:35.384Z,3.70
2022-12-18T10:00:23.332Z,3.60
2022-12-18T10:03:13.689Z,3.38
2022-12-18T10:06:03.973Z,3.08
2022-12-18T10:08:53.651Z,4.55
2022-12-18T10:11:45.419Z,2.92
2022-12-18T10:14:35.931Z,4.15
2022-12-18T10:17:27.442Z,3.45
2022-12-18T10:20:20.731Z,3.35
2022-12-18T10:23:14.913Z,2.70
2022-12-18T10:26:04.133Z,3.17
2022-12-18T10:28:51.699Z,3.53
2022-12-18T10:31:39.504Z,4.10
2022-12-18T10:34:26.759Z,4.15
2022-12-18T10:37:17.772Z,3.50
2022-12-18T10:40:09.369Z,4.85
2022-12-18T10:43:05.194Z,4.35
2022-12-18T10:46:03.853Z,5.00
2022-12-18T10:48:55.349Z,4.15
2022-12-18T10:51:42.086Z,4.55
2022-12-18T10:54:31.877Z,3.95
2022-12-18T10:57:20.276Z,3.78
2022-12-18T11:00:27.315Z,4.78
2022-12-18T11:03:31.863Z,3.65
2022-12-18T11:09:13.112Z,5.55
2022-12-18T11:12:04.028Z,4.93
2022-12-18T11:14:52.717Z,4.95
2022-12-18T11:17:40.183Z,5.45
2022-12-18T11:20:31.272Z,6.03
2022-12-18T11:23:18.498Z,4.15
2022-12-18T11:26:07.165Z,5.05
2022-12-18T11:29:10.002Z,5.25
2022-12-18T11:32:14.875Z,5.18
2022-12-18T11:35:05.430Z,4.15
2022-12-18T11:37:58.571Z,6.30
2022-12-18T11:40:49.684Z,7.35
2022-12-18T11:43:40.173Z,5.63
2022-12-18T11:46:33.121Z,6.20
2022-12-18T11:49:23.676Z,7.07
2022-12-18T11:52:14.099Z,6.95
2022-12-18T11:55:03.488Z,6.85
2022-12-18T11:57:54.660Z,5.97
2022-12-18T12:00:46.976Z,7.82
2022-12-18T12:03:49.716Z,6.72
2022-12-18T12:06:42.256Z,6.50
2022-12-18T12:09:33.738Z,6.47
2022-12-18T12:12:48.729Z,5.88
2022-12-18T12:15:47.117Z,6.18
2022-12-18T12:18:49.728Z,6.43
2022-12-18T12:21:42.518Z,5.57
2022-12-18T12:24:39.447Z,7.43
2022-12-18T12:27:37.078Z,7.38
2022-12-18T12:30:33.229Z,5.90
2022-12-18T12:33:25.524Z,6.28
2022-12-18T12:36:22.832Z,7.38
2022-12-18T12:39:16.406Z,7.68
2022-12-18T12:42:23.567Z,7.05
2022-12-18T12:45:18.799Z,6.25
2022-12-18T12:48:16.306Z,7.57
2022-12-18T12:51:11.606Z,9.38
2022-12-18T12:54:03.985Z,6.13
2022-12-18T12:56:59.987Z,7.28
2022-12-18T12:59:49.840Z,8.52
2022-12-18T13:02:41.584Z,6.15
2022-12-18T13:05:37.300Z,6.60
2022-12-18T13:08:27.365Z,9.18
2022-12-18T13:11:52.560Z,9.23
2022-12-18T13:14:43.905Z,6.53
2022-12-18T13:17:33.535Z,9.82
2022-12-18T13:20:20.897Z,9.70
2022-12-18T13:23:28.993Z,10.05
2022-12-18T13:26:35.516Z,5.90
2022-12-18T13:29:44.151Z,7.07
2022-12-18T13:32:32.323Z,8.27
2022-12-18T13:35:43.407Z,8.10
2022-12-18T13:38:37.442Z,9.52
2022-12-18T13:41:26.687Z,9.30
2022-12-18T13:44:26.970Z,9.13
2022-12-18T13:47:30.385Z,9.13
2022-12-18T13:50:30.972Z,11.18
2022-12-18T13:53:26.970Z,10.05
2022-12-18T13:56:24.000Z,6.78
2022-12-18T13:59:23.260Z,12.23
2022-12-18T14:02:17.052Z,10.60
2022-12-18T14:05:05.686Z,11.95
2022-12-18T14:07:55.682Z,11.55
2022-12-18T14:10:48.547Z,9.43
2022-12-18T14:13:38.859Z,11.30
2022-12-18T14:16:27.574Z,10.48
2022-12-18T14:19:17.920Z,11.82
2022-12-18T14:22:05.657Z,10.35
2022-12-18T14:25:16.102Z,9.80
2022-12-18T14:28:14.071Z,10.30
2022-12-18T14:31:01.617Z,9.13
2022-12-18T14:33:50.666Z,9.63
2022-12-18T14:36:40.912Z,8.10
2022-12-18T14:39:28.332Z,9.23
2022-12-18T14:42:15.299Z,8.13
2022-12-18T14:45:40.975Z,11.25
2022-12-18T14:48:38.032Z,10.98
2022-12-18T14:51:30.095Z,9.85
2022-12-18T14:54:18.416Z,9.95
2022-12-18T14:57:06.540Z,10.75
2022-12-18T14:59:53.643Z,9.68
2022-12-18T15:02:42.057Z,11.23
2022-12-18T15:05:30.779Z,11.35
2022-12-18T15:08:33.200Z,9.80
2022-12-18T15:11:27.939Z,9.93
2022-12-18T15:14:25.006Z,8.82
2022-12-18T15:17:18.517Z,9.73
2022-12-18T15:20:11.266Z,11.98
2022-12-18T15:22:58.488Z,9.57
2022-12-18T15:25:47.784Z,8.93
2022-12-18T15:28:37.452Z,10.95
2022-12-18T15:31:27.161Z,9.75
2022-12-18T15:34:15.452Z,9.70
2022-12-18T15:37:02.517Z,10.35
2022-12-18T15:39:49.416Z,9.30
2022-12-18T15:42:55.066Z,10.85
2022-12-18T15:45:42.041Z,11.48
2022-12-18T15:48:29.079Z,12.30
2022-12-18T15:51:18.151Z,12.60
2022-12-18T15:54:06.223Z,12.45
2022-12-18T15:57:06.921Z,12.38
2022-12-18T15:59:57.520Z,9.95
2022-12-18T16:02:45.194Z,8.45
2022-12-18T16:05:33.011Z,11.02
2022-12-18T16:08:20.248Z,8.80
2022-12-18T16:11:10.941Z,13.07
2022-12-18T16:13:58.527Z,9.93
2022-12-18T16:16:49.790Z,11.30
2022-12-18T16:19:37.364Z,7.00
2022-12-18T16:22:26.659Z,8.52
2022-12-18T16:25:18.489Z,9.77
2022-12-18T16:28:05.427Z,15.38
2022-12-18T16:30:52.951Z,15.25
2022-12-18T16:33:41.984Z,11.30
2022-12-18T16:36:29.242Z,12.63
2022-12-18T16:39:16.354Z,10.23
2022-12-18T16:42:05.874Z,13.45
2022-12-18T16:44:53.266Z,15.45
2022-12-18T16:47:40.256Z,10.73
2022-12-18T16:50:28.723Z,11.88
2022-12-18T16:53:15.573Z,11.52
2022-12-18T16:56:02.440Z,15.38
2022-12-18T16:58:51.740Z,9.32
2022-12-18T17:01:38.933Z,13.65
2022-12-18T17:04:26.274Z,13.10
2022-12-18T17:07:14.728Z,11.00
2022-12-18T17:10:01.806Z,11.70
2022-12-18T17:12:48.783Z,12.55
2022-12-18T17:15:36.643Z,11.85
2022-12-18T17:18:23.445Z,11.70
2022-12-18T17:21:10.463Z,9.95
2022-12-18T17:24:00.516Z,10.95
2022-12-18T17:26:48.248Z,8.23
2022-12-18T17:29:38.271Z,13.90
2022-12-18T17:32:26.921Z,9.55
2022-12-18T17:35:14.073Z,13.23
2022-12-18T17:38:01.391Z,14.40
2022-12-18T17:40:49.637Z,11.68
2022-12-18T17:43:45.599Z,13.40
2022-12-18T17:46:34.066Z,12.02
2022-12-18T17:49:21.607Z,12.68
2022-12-18T17:52:08.871Z,15.60
2022-12-18T17:54:55.994Z,12.27
2022-12-18T17:57:44.260Z,9.63
2022-12-18T18:00:30.978Z,13.73
2022-12-18T18:03:17.996Z,12.85
2022-12-18T18:06:05.812Z,12.90
2022-12-18T18:08:54.729Z,10.43
2022-12-18T18:11:59.643Z,14.77
2022-12-18T18:14:47.943Z,11.65
2022-12-18T18:17:35.317Z,11.65
2022-12-18T18:20:22.920Z,14.88
2022-12-18T18:23:10.297Z,13.50
2022-12-18T18:25:57.307Z,13.18
2022-12-18T18:28:44.484Z,11.60
2022-12-18T18:31:41.031Z,13.65
2022-12-18T18:34:30.885Z,10.70
2022-12-18T18:37:18.949Z,16.10
2022-12-18T18:40:06.611Z,13.60
2022-12-18T18:42:53.704Z,13.38
2022-12-18T18:45:41.036Z,13.57
2022-12-18T18:48:33.134Z,13.00
2022-12-18T18:51:22.623Z,12.38
2022-12-18T18:54:10.082Z,14.65
2022-12-18T18:57:19.845Z,11.98
2022-12-18T19:00:04.866Z,13.20
2022-12-18T19:02:54.108Z,12.73
2022-12-18T19:05:51.713Z,14.45
2022-12-18T19:08:40.007Z,16.70
2022-12-18T19:11:45.647Z,13.77
2022-12-18T19:14:32.977Z,15.65
2022-12-18T19:17:21.764Z,16.50
2022-12-18T19:20:12.160Z,9.85
2022-12-18T19:23:00.977Z,15.77
2022-12-18T19:25:50.677Z,13.23
2022-12-18T19:28:37.802Z,16.63
2022-12-18T19:31:29.171Z,10.93
2022-12-18T19:34:19.170Z,11.23
2022-12-18T19:37:06.672Z,15.75
2022-12-18T19:39:56.653Z,12.50
2022-12-18T19:42:44.048Z,15.43
2022-12-18T19:45:33.595Z,14.23
2022-12-18T19:48:20.990Z,13.52
2022-12-18T19:51:10.375Z,16.85
2022-12-18T19:54:01.420Z,13.55
2022-12-18T19:56:52.868Z,13.63
2022-12-18T19:59:40.833Z,11.50
2022-12-18T20:02:29.060Z,15.68
2022-12-18T20:05:17.200Z,14.73
2022-12-18T20:08:04.558Z,16.80
2022-12-18T20:10:51.863Z,16.52
2022-12-18T20:13:40.966Z,13.88
2022-12-18T20:16:28.958Z,12.70
2022-12-18T20:19:16.868Z,13.25
2022-12-18T20:22:04.885Z,10.13
2022-12-18T20:24:52.235Z,15.15
2022-12-18T20:27:39.249Z,17.17
2022-12-18T20:30:27.525Z,13.57
2022-12-18T20:33:14.470Z,13.10
2022-12-18T20:36:02.402Z,11.93
2022-12-18T20:38:50.875Z,15.45
2022-12-18T20:41:39.211Z,14.73
2022-12-18T20:44:26.176Z,13.65
2022-12-18T20:47:14.457Z,13.65
2022-12-18T20:50:02.019Z,11.43
2022-12-18T20:52:49.523Z,10.52
2022-12-18T20:55:36.744Z,12.85
2022-12-18T20:58:23.595Z,16.13
2022-12-18T21:01:11.999Z,11.85
2022-12-18T21:04:00.787Z,14.80
2022-12-18T21:06:52.902Z,15.30
2022-12-18T21:09:43.117Z,15.55
2022-12-18T21:12:40.521Z,15.52
2022-12-18T21:15:30.928Z,14.30
2022-12-18T21:18:18.212Z,17.20
2022-12-18T21:21:06.681Z,16.63
2022-12-18T21:23:53.806Z,15.77
2022-12-18T21:26:46.349Z,18.70
2022-12-18T21:29:34.931Z,15.43
2022-12-18T21:32:22.246Z,14.77
2022-12-18T21:35:11.932Z,11.68
2022-12-18T21:38:00.241Z,14.43
2022-12-18T21:40:50.078Z,13.45
2022-12-18T21:43:55.694Z,15.98
2022-12-18T21:46:44.265Z,12.40
2022-12-18T21:49:31.431Z,12.77
2022-12-18T21:52:18.462Z,11.80
2022-12-18T21:55:09.947Z,14.30
2022-12-18T21:57:57.545Z,16.67
2022-12-18T22:00:48.568Z,17.58
2022-12-18T22:03:36.113Z,14.60
2022-12-18T22:06:23.319Z,16.63
2022-12-18T22:09:10.595Z,16.27
2022-12-18T22:11:59.276Z,13.35
2022-12-18T22:14:46.432Z,14.85
2022-12-18T22:17:33.224Z,17.60
2022-12-18T22:20:20.465Z,15.45
2022-12-18T22:23:07.621Z,15.38
2022-12-18T22:25:54.519Z,11.18
2022-12-18T22:29:00.357Z,17.50
2022-12-18T22:31:47.680Z,16.48
2022-12-18T22:34:36.870Z,14.38
2022-12-18T22:37:23.950Z,17.40
2022-12-18T22:40:13.028Z,13.40
2022-12-18T22:43:01.409Z,14.65
2022-12-18T22:45:49.859Z,17.38
2022-12-18T22:48:36.717Z,18.20
2022-12-18T22:51:23.894Z,15.68
2022-12-18T22:54:11.421Z,17.50
2022-12-18T22:56:58.680Z,18.75
2022-12-18T22:59:45.541Z,19.67
2022-12-18T23:02:34.013Z,18.10
2022-12-18T23:05:21.428Z,18.35
2022-12-18T23:08:08.181Z,18.23
2022-12-18T23:10:55.120Z,15.80
2022-12-18T23:13:42.178Z,20.15
2022-12-18T23:16:29.408Z,20.35
2022-12-18T23:19:18.015Z,15.98
2022-12-18T23:22:11.380Z,15.73
2022-12-18T23:24:58.683Z,15.93
2022-12-18T23:27:45.859Z,18.85
2022-12-18T23:30:33.387Z,17.63
2022-12-18T23:33:20.500Z,18.73
2022-12-18T23:36:09.483Z,17.27
2022-12-18T23:38:57.400Z,17.40
2022-12-18T23:41:44.371Z,19.73
2022-12-18T23:44:31.623Z,19.92
2022-12-18T23:47:18.803Z,21.90
2022-12-18T23:50:06.556Z,17.80
2022-12-18T23:53:02.130Z,20.65
2022-12-18T23:55:52.660Z,14.65
2022-12-18T23:58:41.027Z,19.08
